Time;durP1;ratioP1;P1;durP2;ratioP2;P2;SDS_P1;SDS_P2;PMS_P1;PMS_P2;Temp;Humidity;BMP_temperature;BMP_pressure;BME280_temperature;BME280_humidity;BME280_pressure;Samples;Min_cycle;Max_cycle;Signal;HPM_P1;HPM_P2
2023/01/06 00:01:19;;;;;;;1.30;0.50;;;8.00;99.90;;;;;;4167311;28;20209;-63
2023/01/06 00:03:20;;;;;;;0.40;0.40;;;8.00;99.90;;;;;;4174940;28;20835;-63
2023/01/06 00:05:20;;;;;;;0.43;0.40;;;8.00;99.90;;;;;;4167617;28;20223;-64
2023/01/06 00:07:21;;;;;;;0.87;0.50;;;8.10;99.90;;;;;;4171837;28;20183;-65
2023/01/06 00:09:21;;;;;;;0.73;0.50;;;8.10;99.90;;;;;;4167769;28;20561;-64
2023/01/06 00:11:23;;;;;;;0.60;0.60;;;8.00;99.90;;;;;;4174544;28;20301;-66
2023/01/06 00:13:24;;;;;;;0.80;0.80;;;8.10;99.90;;;;;;4166244;28;20241;-65
2023/01/06 00:15:25;;;;;;;1.27;0.97;;;8.10;99.90;;;;;;4174286;28;20264;-66
2023/01/06 00:17:25;;;;;;;1.60;0.90;;;8.00;99.90;;;;;;4167212;28;20191;-65
2023/01/06 00:19:26;;;;;;;0.93;0.83;;;8.10;99.90;;;;;;4173609;28;20270;-65
2023/01/06 00:21:28;;;;;;;0.90;0.77;;;8.10;99.90;;;;;;4167933;28;20209;-65
2023/01/06 00:23:28;;;;;;;1.50;1.40;;;8.20;99.90;;;;;;4173429;28;20196;-65
2023/01/06 00:25:29;;;;;;;0.90;0.80;;;8.20;99.90;;;;;;4168306;28;20883;-65
2023/01/06 00:27:31;;;;;;;0.90;0.80;;;8.10;99.90;;;;;;4172610;28;20193;-65
2023/01/06 00:29:32;;;;;;;1.17;0.97;;;8.10;99.90;;;;;;4168418;28;20190;-65
2023/01/06 00:31:32;;;;;;;0.60;0.60;;;8.10;99.90;;;;;;4172590;28;20308;-65
2023/01/06 00:33:33;;;;;;;1.23;0.70;;;8.10;99.90;;;;;;4168490;28;20741;-65
2023/01/06 00:35:34;;;;;;;1.33;0.80;;;8.20;99.90;;;;;;4172424;28;20947;-66
2023/01/06 00:37:34;;;;;;;1.73;1.03;;;8.30;99.90;;;;;;4168302;28;20293;-65
2023/01/06 00:39:35;;;;;;;2.27;0.70;;;8.20;99.90;;;;;;4171938;28;20194;-64
2023/01/06 00:43:56;;;;;;;2.07;0.90;;;8.20;99.90;;;;;;4169404;28;20245;-65
2023/01/06 00:46:00;;;;;;;0.50;0.50;;;8.20;99.90;;;;;;4170614;28;20192;-67
2023/01/06 00:48:01;;;;;;;1.13;0.80;;;8.30;99.90;;;;;;4166693;28;20215;-66
2023/01/06 00:50:01;;;;;;;0.80;0.70;;;8.30;99.90;;;;;;4172572;28;20214;-64
2023/01/06 00:52:03;;;;;;;0.80;0.60;;;8.20;99.90;;;;;;4163534;28;20200;-64
2023/01/06 00:54:05;;;;;;;1.37;0.80;;;8.30;99.90;;;;;;4172688;28;20242;-63
2023/01/06 00:56:06;;;;;;;1.47;0.70;;;8.30;99.90;;;;;;4168016;28;20656;-64
2023/01/06 00:58:06;;;;;;;0.60;0.60;;;8.20;99.90;;;;;;4172617;28;20188;-64
2023/01/06 01:00:11;;;;;;;0.73;0.60;;;8.20;99.90;;;;;;4167459;28;20216;-64
2023/01/06 01:02:11;;;;;;;0.70;0.70;;;8.20;99.90;;;;;;4173501;28;20204;-64
2023/01/06 01:04:13;;;;;;;1.00;0.80;;;8.10;99.90;;;;;;4166899;28;20229;-62
2023/01/06 01:06:15;;;;;;;0.73;0.73;;;8.00;99.90;;;;;;4184340;28;20180;-62
2023/01/06 01:08:16;;;;;;;1.10;0.90;;;7.90;99.90;;;;;;4185701;28;20613;-63
2023/01/06 01:10:16;;;;;;;0.97;0.80;;;7.80;99.90;;;;;;4167137;28;20294;-67
2023/01/06 01:12:17;;;;;;;1.57;0.67;;;7.70;99.90;;;;;;4174638;28;20199;-63
2023/01/06 01:14:19;;;;;;;0.70;0.70;;;7.60;99.90;;;;;;4178420;28;20211;-63
2023/01/06 01:16:20;;;;;;;1.00;0.90;;;7.60;99.90;;;;;;4178966;28;20184;-63
2023/01/06 01:18:20;;;;;;;1.10;0.93;;;7.50;99.90;;;;;;4178489;28;20210;-63
2023/01/06 01:20:21;;;;;;;2.23;1.10;;;7.40;99.90;;;;;;4179549;28;20634;-64
2023/01/06 01:22:25;;;;;;;1.10;0.80;;;7.30;99.90;;;;;;4179243;28;20190;-63
2023/01/06 01:24:25;;;;;;;1.20;0.90;;;7.30;99.90;;;;;;4176788;28;20192;-64
2023/01/06 01:26:26;;;;;;;0.83;0.73;;;7.30;99.90;;;;;;4177294;28;21098;-63
2023/01/06 01:28:26;;;;;;;0.80;0.80;;;7.20;99.90;;;;;;4178841;28;20184;-63
2023/01/06 01:30:27;;;;;;;0.80;0.80;;;7.10;99.90;;;;;;4179066;28;20204;-63
2023/01/06 01:32:28;;;;;;;0.73;0.70;;;7.10;99.90;;;;;;4179233;28;20191;-63
2023/01/06 01:34:28;;;;;;;0.80;0.60;;;7.00;99.90;;;;;;4178772;28;20216;-63
2023/01/06 01:36:29;;;;;;;0.90;0.80;;;6.90;99.90;;;;;;4178257;28;20197;-64
2023/01/06 01:38:30;;;;;;;2.27;0.77;;;6.80;99.90;;;;;;4178516;28;20184;-63
2023/01/06 01:40:30;;;;;;;1.00;0.80;;;6.70;99.90;;;;;;4178766;28;20207;-63
2023/01/06 01:42:31;;;;;;;1.00;0.90;;;6.60;99.90;;;;;;4178486;28;20176;-63
2023/01/06 01:44:54;;;;;;;1.57;0.73;;;6.70;99.90;;;;;;4177264;28;20191;-63
2023/01/06 01:46:54;;;;;;;0.70;0.67;;;6.50;99.90;;;;;;4177899;28;20202;-63
2023/01/06 01:49:00;;;;;;;1.73;0.90;;;6.50;99.90;;;;;;4177326;28;20455;-64
2023/01/06 01:51:05;;;;;;;1.60;0.70;;;6.50;99.90;;;;;;4177406;28;20204;-64
2023/01/06 01:53:30;;;;;;;1.07;0.70;;;6.60;99.90;;;;;;4160607;28;20523;-64
2023/01/06 01:55:33;;;;;;;1.13;0.70;;;6.60;99.90;;;;;;4177292;28;20431;-64
2023/01/06 01:57:45;;;;;;;0.90;0.80;;;6.50;99.90;;;;;;4176694;28;20801;-63
2023/01/06 01:59:46;;;;;;;1.57;0.70;;;6.50;99.90;;;;;;4178563;28;20499;-64
2023/01/06 02:01:48;;;;;;;0.97;0.70;;;6.60;99.90;;;;;;4178588;28;20423;-64
2023/01/06 02:03:49;;;;;;;1.33;1.00;;;6.50;99.90;;;;;;4178335;28;20427;-64
2023/01/06 02:05:55;;;;;;;2.20;0.80;;;6.60;99.90;;;;;;4178348;28;20195;-64
2023/01/06 02:08:00;;;;;;;0.80;0.80;;;6.60;99.90;;;;;;4177818;28;20180;-64
2023/01/06 02:10:20;;;;;;;0.70;0.70;;;6.60;99.90;;;;;;4177087;28;20457;-63
2023/01/06 02:12:20;;;;;;;1.03;0.70;;;6.60;99.90;;;;;;4178077;28;20996;-64
2023/01/06 02:14:23;;;;;;;1.20;0.97;;;6.60;99.90;;;;;;4177820;28;20469;-64
2023/01/06 02:16:44;;;;;;;1.47;0.87;;;6.60;99.90;;;;;;4177610;28;20242;-65
2023/01/06 02:19:20;;;;;;;0.93;0.77;;;6.60;99.90;;;;;;4176544;28;20487;-64
2023/01/06 02:21:40;;;;;;;0.77;0.70;;;6.60;99.90;;;;;;4177053;28;20453;-64
2023/01/06 02:24:08;;;;;;;1.17;0.63;;;6.60;99.90;;;;;;4177963;28;20416;-64
2023/01/06 02:26:49;;;;;;;1.83;0.70;;;6.60;99.90;;;;;;4176880;28;20925;-64
2023/01/06 02:29:29;;;;;;;0.63;0.60;;;6.50;99.90;;;;;;4178176;28;20419;-64
2023/01/06 02:31:59;;;;;;;0.80;0.60;;;6.50;99.90;;;;;;4180334;28;20530;-64
2023/01/06 02:34:23;;;;;;;1.00;0.87;;;6.50;99.90;;;;;;4180093;28;20457;-64
2023/01/06 02:36:44;;;;;;;0.70;0.70;;;6.50;99.90;;;;;;4179314;28;20438;-63
2023/01/06 02:39:03;;;;;;;0.67;0.60;;;6.40;99.90;;;;;;4180004;28;20987;-64
2023/01/06 02:41:57;;;;;;;0.87;0.70;;;6.30;99.90;;;;;;4174523;28;20457;-64
2023/01/06 02:44:26;;;;;;;0.70;0.70;;;6.30;99.90;;;;;;4164654;28;20454;-64
2023/01/06 02:46:59;;;;;;;2.43;0.73;;;6.30;99.90;;;;;;4163072;28;20419;-63
2023/01/06 02:49:27;;;;;;;0.70;0.60;;;6.20;99.90;;;;;;4165010;28;20428;-64
2023/01/06 02:51:56;;;;;;;0.83;0.77;;;6.20;99.90;;;;;;4163436;28;20447;-64
2023/01/06 02:54:37;;;;;;;0.60;0.50;;;6.20;99.90;;;;;;4163192;28;20548;-64
2023/01/06 02:56:44;;;;;;;0.77;0.70;;;6.10;99.90;;;;;;4162677;28;20427;-64
2023/01/06 02:59:10;;;;;;;0.50;0.50;;;5.90;99.90;;;;;;4162757;28;20845;-64
2023/01/06 03:01:23;;;;;;;0.80;0.70;;;5.90;99.90;;;;;;4146925;28;20437;-64
2023/01/06 03:03:28;;;;;;;1.00;0.70;;;5.90;99.90;;;;;;4146791;28;20429;-64
2023/01/06 03:05:29;;;;;;;0.97;0.70;;;6.00;99.90;;;;;;4148254;28;20436;-64
2023/01/06 03:07:31;;;;;;;0.70;0.70;;;5.90;99.90;;;;;;4154968;28;20471;-64
2023/01/06 03:09:35;;;;;;;0.70;0.67;;;5.90;99.90;;;;;;4149883;28;20421;-64
2023/01/06 03:11:38;;;;;;;1.27;0.83;;;5.90;99.90;;;;;;4147368;28;20435;-64
2023/01/06 03:13:47;;;;;;;0.57;0.57;;;5.90;99.90;;;;;;4147768;28;21194;-64
2023/01/06 03:15:48;;;;;;;0.80;0.80;;;5.90;99.90;;;;;;4148114;28;20420;-64
2023/01/06 03:17:48;;;;;;;2.30;0.90;;;5.90;99.90;;;;;;4146250;28;20800;-64
2023/01/06 03:19:50;;;;;;;0.63;0.63;;;5.90;99.90;;;;;;4148041;28;20189;-64
2023/01/06 03:21:51;;;;;;;1.53;1.00;;;5.90;99.90;;;;;;4147920;28;20265;-64
2023/01/06 03:23:52;;;;;;;0.80;0.80;;;5.90;99.90;;;;;;4146423;28;20527;-64
2023/01/06 03:25:53;;;;;;;1.00;0.80;;;5.90;99.90;;;;;;4147863;28;20424;-64
2023/01/06 03:27:53;;;;;;;0.67;0.60;;;5.80;99.90;;;;;;4145669;28;20420;-64
2023/01/06 03:29:54;;;;;;;0.70;0.70;;;5.80;99.90;;;;;;4147746;28;20233;-64
2023/01/06 03:32:13;;;;;;;0.80;0.80;;;5.70;99.90;;;;;;4147657;28;20189;-64
2023/01/06 03:34:55;;;;;;;0.70;0.63;;;5.80;99.90;;;;;;4147558;28;20216;-64
2023/01/06 03:37:20;;;;;;;0.67;0.57;;;5.80;99.90;;;;;;4146918;28;20420;-64
2023/01/06 03:39:38;;;;;;;0.90;0.80;;;5.80;99.90;;;;;;4147558;28;20424;-64
2023/01/06 03:44:09;;;;;;;1.00;0.80;;;5.70;99.90;;;;;;4147486;28;20489;-64
2023/01/06 03:46:22;;;;;;;0.70;0.70;;;5.50;99.90;;;;;;4146147;28;21129;-64
2023/01/06 03:48:32;;;;;;;1.40;0.97;;;5.30;99.90;;;;;;4147260;28;20435;-64
2023/01/06 03:50:49;;;;;;;0.70;0.70;;;5.20;99.90;;;;;;4147368;28;20914;-64
2023/01/06 03:53:00;;;;;;;1.90;1.40;;;5.20;99.90;;;;;;4147360;28;20930;-65
2023/01/06 03:55:14;;;;;;;2.63;1.77;;;5.10;99.90;;;;;;4147668;28;20502;-64
2023/01/06 03:57:37;;;;;;;2.20;1.30;;;5.10;99.90;;;;;;4141920;28;20493;-64
2023/01/06 03:59:52;;;;;;;1.90;1.40;;;5.00;99.90;;;;;;4178449;28;20435;-64
2023/01/06 04:01:53;;;;;;;1.20;1.10;;;5.00;99.90;;;;;;4178787;28;20419;-64
2023/01/06 04:03:55;;;;;;;0.90;0.90;;;4.90;99.90;;;;;;4163545;28;20411;-64
2023/01/06 04:05:55;;;;;;;1.00;0.90;;;4.90;99.90;;;;;;4162260;28;20430;-64
2023/01/06 04:07:56;;;;;;;1.30;1.00;;;4.80;99.90;;;;;;4162681;28;20423;-64
2023/01/06 04:09:57;;;;;;;1.50;1.10;;;4.90;99.90;;;;;;4163608;28;20209;-64
2023/01/06 04:14:17;;;;;;;1.47;0.90;;;4.80;99.90;;;;;;4161832;28;20296;-65
2023/01/06 04:16:17;;;;;;;2.03;0.73;;;4.90;99.90;;;;;;4163242;28;20432;-64
2023/01/06 04:18:18;;;;;;;0.77;0.70;;;5.00;99.90;;;;;;4162702;28;20911;-64
2023/01/06 04:20:27;;;;;;;1.23;0.70;;;5.10;99.90;;;;;;4163545;28;20601;-64
2023/01/06 04:22:28;;;;;;;0.90;0.80;;;5.20;99.90;;;;;;4163332;28;20246;-64
2023/01/06 04:24:29;;;;;;;1.20;0.70;;;5.20;99.90;;;;;;4163188;28;20427;-64
2023/01/06 04:26:29;;;;;;;0.93;0.73;;;5.30;99.90;;;;;;4162602;28;20206;-64
2023/01/06 04:28:30;;;;;;;0.60;0.60;;;5.40;99.90;;;;;;4163121;28;20189;-64
2023/01/06 04:30:31;;;;;;;1.40;0.80;;;5.40;99.90;;;;;;4162922;28;20205;-64
2023/01/06 04:32:32;;;;;;;1.53;0.80;;;5.40;99.90;;;;;;4161480;28;20185;-64
2023/01/06 04:34:33;;;;;;;0.90;0.60;;;5.40;99.90;;;;;;4161782;28;20201;-64
2023/01/06 04:36:33;;;;;;;1.00;0.70;;;5.40;99.90;;;;;;4162524;28;20515;-64
2023/01/06 04:38:34;;;;;;;1.57;0.80;;;5.40;99.90;;;;;;4163052;28;20511;-64
2023/01/06 04:40:35;;;;;;;0.70;0.70;;;5.40;99.90;;;;;;4161835;28;20719;-64
2023/01/06 04:44:55;;;;;;;0.67;0.67;;;5.30;99.90;;;;;;4162993;28;20264;-64
2023/01/06 04:46:55;;;;;;;2.80;0.80;;;5.30;99.90;;;;;;4162288;28;20856;-64
2023/01/06 04:48:56;;;;;;;1.27;0.93;;;5.20;99.90;;;;;;4163236;28;20185;-64
2023/01/06 04:51:06;;;;;;;0.97;0.80;;;5.20;99.90;;;;;;4163032;28;20201;-64
2023/01/06 04:53:08;;;;;;;0.87;0.80;;;5.30;99.90;;;;;;4161670;28;20161;-64
2023/01/06 04:55:09;;;;;;;1.47;0.80;;;5.30;99.90;;;;;;4161645;28;20431;-64
2023/01/06 04:57:10;;;;;;;1.60;1.00;;;5.50;99.90;;;;;;4162065;28;20426;-64
2023/01/06 04:59:11;;;;;;;0.83;0.80;;;5.50;99.90;;;;;;4162815;28;20188;-64
2023/01/06 05:01:12;;;;;;;0.90;0.80;;;5.60;99.90;;;;;;4162490;28;20201;-64
2023/01/06 05:03:13;;;;;;;1.10;0.90;;;5.70;99.90;;;;;;4162855;28;20173;-64
2023/01/06 05:05:15;;;;;;;0.70;0.70;;;5.90;99.90;;;;;;4162804;28;20424;-64
2023/01/06 05:07:15;;;;;;;0.60;0.60;;;6.10;99.90;;;;;;4162106;28;20186;-64
2023/01/06 05:09:16;;;;;;;0.80;0.80;;;6.30;99.90;;;;;;4150857;28;20475;-64
2023/01/06 05:11:23;;;;;;;0.80;0.80;;;6.50;99.90;;;;;;4147486;28;20817;-63
2023/01/06 05:13:24;;;;;;;0.70;0.70;;;6.40;99.90;;;;;;4146642;28;20205;-64
2023/01/06 05:15:25;;;;;;;0.80;0.80;;;6.60;99.90;;;;;;4155004;28;20484;-64
2023/01/06 05:17:26;;;;;;;1.00;0.80;;;6.80;99.90;;;;;;4155626;28;20186;-64
2023/01/06 05:19:27;;;;;;;0.63;0.63;;;6.80;99.90;;;;;;4155935;28;20239;-64
2023/01/06 05:21:28;;;;;;;0.80;0.80;;;6.80;99.90;;;;;;4156628;28;20449;-64
2023/01/06 05:23:29;;;;;;;0.97;0.87;;;6.80;99.90;;;;;;4155940;28;20189;-65
2023/01/06 05:25:30;;;;;;;0.60;0.60;;;7.00;99.90;;;;;;4155978;28;20209;-64
2023/01/06 05:27:31;;;;;;;0.87;0.70;;;7.10;99.90;;;;;;4155411;28;20213;-64
2023/01/06 05:29:31;;;;;;;0.90;0.90;;;7.20;99.90;;;;;;4156718;28;20189;-64
2023/01/06 05:31:32;;;;;;;1.00;0.90;;;7.30;99.90;;;;;;4156225;28;20258;-64
2023/01/06 05:33:33;;;;;;;1.00;0.80;;;7.30;99.90;;;;;;4155821;28;20216;-64
2023/01/06 05:35:34;;;;;;;1.40;0.90;;;7.40;99.90;;;;;;4155560;28;20201;-66
2023/01/06 05:37:34;;;;;;;1.00;0.90;;;7.50;99.90;;;;;;4155483;28;20209;-64
2023/01/06 05:39:35;;;;;;;0.60;0.60;;;7.50;99.90;;;;;;4153134;28;20676;-64
2023/01/06 05:41:36;;;;;;;1.20;0.90;;;7.50;99.90;;;;;;4147789;28;20221;-64
2023/01/06 05:43:36;;;;;;;1.20;0.60;;;7.60;99.90;;;;;;4147299;28;20264;-64
2023/01/06 05:45:37;;;;;;;2.10;0.67;;;7.60;99.90;;;;;;4148149;28;20209;-64
2023/01/06 05:47:38;;;;;;;0.50;0.50;;;7.60;99.90;;;;;;4147130;28;20553;-64
2023/01/06 05:49:38;;;;;;;0.57;0.57;;;7.70;99.90;;;;;;4147938;28;20220;-64
2023/01/06 05:51:39;;;;;;;1.53;0.87;;;7.60;99.90;;;;;;4149729;28;20185;-64
2023/01/06 05:53:43;;;;;;;0.90;0.80;;;7.60;99.90;;;;;;4149190;28;20273;-64
2023/01/06 05:55:44;;;;;;;0.83;0.67;;;7.60;99.90;;;;;;4147461;28;20189;-64
2023/01/06 05:57:44;;;;;;;0.80;0.80;;;7.70;99.90;;;;;;4148106;28;20185;-64
2023/01/06 05:59:45;;;;;;;1.63;0.73;;;7.70;99.90;;;;;;4149347;28;20181;-64
2023/01/06 06:01:46;;;;;;;1.33;0.80;;;7.80;99.90;;;;;;4149391;28;20247;-64
2023/01/06 06:03:47;;;;;;;0.70;0.70;;;7.60;99.90;;;;;;4148240;28;20189;-64
2023/01/06 06:05:48;;;;;;;0.50;0.50;;;7.70;99.90;;;;;;4149067;28;20917;-64
2023/01/06 06:07:55;;;;;;;0.67;0.60;;;7.70;99.90;;;;;;4148572;28;20220;-64
2023/01/06 06:09:56;;;;;;;1.83;0.80;;;7.80;99.90;;;;;;4149805;28;20279;-62
2023/01/06 06:11:56;;;;;;;0.70;0.70;;;7.70;99.90;;;;;;4164253;28;20205;-64
2023/01/06 06:13:58;;;;;;;0.70;0.70;;;7.70;99.90;;;;;;4163684;28;20308;-64
2023/01/06 06:16:11;;;;;;;0.60;0.60;;;7.70;99.90;;;;;;4162666;28;20211;-64
2023/01/06 06:18:12;;;;;;;0.90;0.77;;;7.80;99.90;;;;;;4163378;28;20169;-64
2023/01/06 06:20:12;;;;;;;1.43;1.00;;;7.80;99.90;;;;;;4163821;28;20201;-64
2023/01/06 06:22:13;;;;;;;1.90;1.10;;;7.70;99.90;;;;;;4163838;28;20383;-64
2023/01/06 06:24:14;;;;;;;1.07;0.73;;;7.60;99.90;;;;;;4163861;28;20215;-66
2023/01/06 06:26:15;;;;;;;2.30;1.37;;;7.60;99.90;;;;;;4162343;28;20187;-64
2023/01/06 06:28:15;;;;;;;2.30;1.20;;;7.60;99.90;;;;;;4163186;28;20263;-64
2023/01/06 06:30:16;;;;;;;1.57;1.13;;;7.70;99.90;;;;;;4162318;28;20230;-64
2023/01/06 06:32:17;;;;;;;1.13;0.90;;;7.70;99.90;;;;;;4163579;28;20188;-64
2023/01/06 06:34:17;;;;;;;0.87;0.70;;;7.60;99.90;;;;;;4163717;28;20209;-64
2023/01/06 06:36:19;;;;;;;0.57;0.57;;;7.60;99.90;;;;;;4164511;28;20216;-64
2023/01/06 06:38:19;;;;;;;0.60;0.60;;;7.60;99.90;;;;;;4163784;28;20203;-64
2023/01/06 06:40:20;;;;;;;0.70;0.70;;;7.60;99.90;;;;;;4164280;28;20197;-64
2023/01/06 06:42:20;;;;;;;0.40;0.40;;;7.60;99.90;;;;;;4164407;28;20188;-64
2023/01/06 06:44:21;;;;;;;0.60;0.60;;;7.60;99.90;;;;;;4164381;28;20181;-64
2023/01/06 06:46:22;;;;;;;0.50;0.50;;;7.70;99.90;;;;;;4162554;28;20235;-64
2023/01/06 06:48:23;;;;;;;0.60;0.60;;;7.80;99.90;;;;;;4163470;28;20193;-64
2023/01/06 06:50:23;;;;;;;0.40;0.40;;;7.80;99.90;;;;;;4163073;28;20334;-64
2023/01/06 06:52:24;;;;;;;0.60;0.60;;;7.80;99.90;;;;;;4163001;28;20184;-64
2023/01/06 06:54:24;;;;;;;2.67;1.80;;;7.90;99.90;;;;;;4163341;28;20220;-64
2023/01/06 06:56:25;;;;;;;0.77;0.77;;;7.90;99.90;;;;;;4163313;28;20187;-64
2023/01/06 06:58:26;;;;;;;2.40;1.37;;;7.90;99.90;;;;;;4163158;28;20193;-64
2023/01/06 07:00:27;;;;;;;12.30;5.63;;;7.90;99.90;;;;;;4163070;28;20197;-64
2023/01/06 07:02:27;;;;;;;10.23;4.60;;;7.90;99.90;;;;;;4161840;28;20189;-64
2023/01/06 07:04:28;;;;;;;9.70;4.47;;;7.90;99.90;;;;;;4161684;28;20259;-64
2023/01/06 07:06:30;;;;;;;7.60;4.20;;;7.90;99.90;;;;;;4162340;28;20188;-64
2023/01/06 07:08:33;;;;;;;4.90;3.17;;;8.00;99.90;;;;;;4163067;28;20231;-62
2023/01/06 07:10:34;;;;;;;6.13;3.10;;;8.00;99.90;;;;;;4158702;28;20280;-64
2023/01/06 07:12:35;;;;;;;1.50;1.17;;;8.10;99.90;;;;;;4161506;28;20721;-64
2023/01/06 07:14:35;;;;;;;2.00;1.50;;;8.00;99.90;;;;;;4161835;28;20205;-64
2023/01/06 07:16:36;;;;;;;2.17;1.57;;;8.00;99.90;;;;;;4162026;28;20185;-64
2023/01/06 07:18:37;;;;;;;1.10;1.00;;;7.90;99.90;;;;;;4164638;28;20169;-63
2023/01/06 07:20:38;;;;;;;0.87;0.87;;;7.90;99.90;;;;;;4163125;28;20197;-64
2023/01/06 07:22:39;;;;;;;1.27;1.17;;;7.90;99.90;;;;;;4164395;28;20227;-64
2023/01/06 07:24:40;;;;;;;1.10;1.00;;;7.80;99.90;;;;;;4164285;28;20646;-63
2023/01/06 07:26:40;;;;;;;0.80;0.60;;;7.80;99.90;;;;;;4163801;28;20204;-64
2023/01/06 07:28:41;;;;;;;0.70;0.70;;;7.90;99.90;;;;;;4164150;28;20195;-64
2023/01/06 07:30:42;;;;;;;1.10;0.90;;;7.90;99.90;;;;;;4164068;28;20239;-63
2023/01/06 07:32:42;;;;;;;1.50;1.40;;;7.90;99.90;;;;;;4164079;28;20694;-64
2023/01/06 07:34:43;;;;;;;1.63;1.47;;;8.00;99.90;;;;;;4164310;28;20282;-63
2023/01/06 07:36:44;;;;;;;1.90;1.77;;;7.90;99.90;;;;;;4163440;28;20184;-63
2023/01/06 07:38:44;;;;;;;0.97;0.80;;;7.90;99.90;;;;;;4164312;28;20212;-63
2023/01/06 07:40:45;;;;;;;1.00;0.90;;;7.90;99.90;;;;;;4164129;28;20203;-64
2023/01/06 07:42:46;;;;;;;0.90;0.90;;;8.10;99.90;;;;;;4164111;28;20179;-64
2023/01/06 07:44:47;;;;;;;0.70;0.70;;;8.00;99.90;;;;;;4164211;28;20219;-64
2023/01/06 07:46:48;;;;;;;1.00;1.00;;;8.10;99.90;;;;;;4163384;28;20663;-64
2023/01/06 07:48:48;;;;;;;1.30;1.20;;;8.20;99.90;;;;;;4163873;28;20189;-64
2023/01/06 07:50:49;;;;;;;0.60;0.60;;;8.40;99.90;;;;;;4163811;28;20200;-64
2023/01/06 07:52:50;;;;;;;0.70;0.70;;;8.40;99.90;;;;;;4163974;28;20187;-64
2023/01/06 07:54:50;;;;;;;0.67;0.67;;;8.30;99.90;;;;;;4163871;28;20204;-64
2023/01/06 07:56:51;;;;;;;1.00;0.80;;;8.30;99.90;;;;;;4163628;28;20187;-64
2023/01/06 07:58:53;;;;;;;1.27;0.87;;;8.40;99.90;;;;;;4164683;28;20178;-64
2023/01/06 08:00:54;;;;;;;1.80;1.53;;;8.50;99.90;;;;;;4164004;28;20219;-64
2023/01/06 08:02:54;;;;;;;1.70;1.40;;;8.50;99.90;;;;;;4163809;28;20260;-64
2023/01/06 08:04:55;;;;;;;1.37;1.27;;;8.60;99.90;;;;;;4163550;28;20184;-64
2023/01/06 08:06:56;;;;;;;1.60;1.20;;;8.70;99.90;;;;;;4162967;28;20185;-64
2023/01/06 08:08:56;;;;;;;4.33;3.30;;;8.70;99.90;;;;;;4163477;28;20191;-64
2023/01/06 08:10:57;;;;;;;2.87;2.27;;;8.60;99.90;;;;;;4163476;28;20200;-63
2023/01/06 08:12:58;;;;;;;2.50;1.77;;;8.50;99.90;;;;;;4163507;28;20832;-64
2023/01/06 08:14:59;;;;;;;2.30;1.40;;;8.40;99.90;;;;;;4163486;28;20212;-63
2023/01/06 08:16:59;;;;;;;2.37;1.60;;;8.50;99.90;;;;;;4162736;28;20177;-64
2023/01/06 08:19:02;;;;;;;24.20;22.07;;;8.60;99.90;;;;;;4163561;28;20177;-64
2023/01/06 08:21:07;;;;;;;5.90;3.87;;;8.80;99.90;;;;;;4163140;28;20223;-63
2023/01/06 08:23:07;;;;;;;5.37;3.00;;;8.90;99.90;;;;;;4163376;28;20181;-64
2023/01/06 08:25:08;;;;;;;3.67;2.77;;;9.00;99.90;;;;;;4163294;28;20558;-64
2023/01/06 08:27:09;;;;;;;2.50;1.90;;;9.00;99.90;;;;;;4162201;28;20188;-64
2023/01/06 08:29:10;;;;;;;3.57;1.90;;;9.00;99.90;;;;;;4163318;28;20267;-64
2023/01/06 08:31:17;;;;;;;2.57;1.60;;;9.00;99.90;;;;;;4163140;28;20197;-64
2023/01/06 08:33:18;;;;;;;3.07;1.40;;;8.90;99.90;;;;;;4162803;28;20271;-64
2023/01/06 08:35:19;;;;;;;3.17;1.47;;;9.00;99.90;;;;;;4163036;28;20188;-63
2023/01/06 08:37:19;;;;;;;1.70;1.40;;;8.90;99.90;;;;;;4162402;28;20173;-64
2023/01/06 08:39:20;;;;;;;1.27;1.17;;;8.90;99.90;;;;;;4163068;28;20179;-64
2023/01/06 08:41:21;;;;;;;0.67;0.60;;;8.70;99.90;;;;;;4162944;28;20223;-64
2023/01/06 08:43:22;;;;;;;0.80;0.70;;;8.50;99.90;;;;;;4162978;28;20189;-64
2023/01/06 08:45:23;;;;;;;1.07;0.70;;;8.40;99.90;;;;;;4163095;28;20192;-64
2023/01/06 08:47:24;;;;;;;0.90;0.90;;;8.40;99.90;;;;;;4162518;28;20179;-64
2023/01/06 08:49:24;;;;;;;1.03;0.90;;;8.60;99.90;;;;;;4162797;28;20185;-64
2023/01/06 08:51:27;;;;;;;0.50;0.50;;;8.80;99.90;;;;;;4162934;28;20208;-64
2023/01/06 08:53:27;;;;;;;0.43;0.43;;;8.70;99.90;;;;;;4161848;28;20205;-64
2023/01/06 08:55:28;;;;;;;1.00;0.90;;;8.50;99.90;;;;;;4163128;28;20181;-64
2023/01/06 08:57:29;;;;;;;0.70;0.70;;;8.60;99.90;;;;;;4162379;28;20208;-63
2023/01/06 08:59:29;;;;;;;0.57;0.57;;;8.40;99.90;;;;;;4161550;28;20181;-64
2023/01/06 09:01:34;;;;;;;0.60;0.50;;;8.30;99.90;;;;;;4161720;28;20208;-64
2023/01/06 09:03:35;;;;;;;0.40;0.40;;;8.30;99.90;;;;;;4162778;28;20189;-64
2023/01/06 09:05:35;;;;;;;0.80;0.77;;;8.10;99.90;;;;;;4161384;28;20208;-63
2023/01/06 09:07:36;;;;;;;0.93;0.83;;;7.90;99.90;;;;;;4162979;28;20196;-63
2023/01/06 09:09:37;;;;;;;0.80;0.60;;;7.80;99.90;;;;;;4171475;28;20633;-63
2023/01/06 09:11:43;;;;;;;1.20;1.10;;;7.80;99.90;;;;;;4167252;28;20269;-63
2023/01/06 09:13:45;;;;;;;0.87;0.70;;;8.00;99.90;;;;;;4162991;28;20212;-64
2023/01/06 09:15:47;;;;;;;4.57;2.80;;;8.00;99.90;;;;;;4161726;28;20263;-63
2023/01/06 09:17:48;;;;;;;3.17;2.07;;;8.20;99.90;;;;;;4161951;28;20224;-63
2023/01/06 09:19:49;;;;;;;3.43;1.90;;;8.20;99.90;;;;;;4162552;28;20181;-64
2023/01/06 09:21:49;;;;;;;3.73;3.13;;;8.20;99.90;;;;;;4161410;28;20741;-63
2023/01/06 09:23:50;;;;;;;3.10;1.90;;;8.20;99.90;;;;;;4162735;28;20220;-64
2023/01/06 09:25:54;;;;;;;2.73;2.53;;;8.30;99.90;;;;;;4162929;28;20185;-64
2023/01/06 09:27:57;;;;;;;0.77;0.70;;;8.30;99.90;;;;;;4160305;28;20275;-63
2023/01/06 09:29:58;;;;;;;1.00;0.90;;;8.20;99.90;;;;;;4162163;28;20211;-64
2023/01/06 09:31:58;;;;;;;1.50;1.40;;;8.20;99.90;;;;;;4154019;28;20193;-63
2023/01/06 09:33:59;;;;;;;1.07;1.03;;;8.30;99.90;;;;;;4153585;28;20217;-64
2023/01/06 09:36:00;;;;;;;3.23;2.03;;;8.10;99.90;;;;;;4145789;28;20185;-64
2023/01/06 09:38:00;;;;;;;1.43;1.10;;;8.10;99.90;;;;;;4145050;28;20193;-64
2023/01/06 09:40:02;;;;;;;1.30;1.20;;;8.30;99.90;;;;;;4145104;28;20198;-64
2023/01/06 09:42:39;;;;;;;1.67;1.10;;;8.30;99.90;;;;;;4145891;28;20197;-64
2023/01/06 09:44:57;;;;;;;3.40;1.97;;;8.30;99.90;;;;;;4145693;28;20176;-64
2023/01/06 09:47:00;;;;;;;1.40;1.13;;;8.30;99.90;;;;;;4143808;28;20189;-63
2023/01/06 09:49:12;;;;;;;1.87;1.67;;;8.40;99.90;;;;;;4144556;28;20185;-63
2023/01/06 09:51:20;;;;;;;3.77;2.63;;;8.30;99.90;;;;;;4145822;28;20259;-63
2023/01/06 09:53:43;;;;;;;1.90;1.60;;;8.30;99.90;;;;;;4145808;28;20257;-63
2023/01/06 09:56:09;;;;;;;1.00;0.90;;;8.40;99.90;;;;;;4145857;28;20173;-63
2023/01/06 09:58:48;;;;;;;1.43;1.00;;;8.40;99.90;;;;;;4145105;28;20176;-63
2023/01/06 10:00:53;;;;;;;1.17;0.90;;;8.40;99.90;;;;;;4142161;28;20242;-63
2023/01/06 10:02:55;;;;;;;3.00;2.10;;;8.60;99.90;;;;;;4144261;28;20260;-64
2023/01/06 10:04:56;;;;;;;2.00;1.70;;;8.70;99.90;;;;;;4145519;28;20186;-63
2023/01/06 10:07:16;;;;;;;1.20;1.10;;;8.70;99.90;;;;;;4144943;28;20178;-64
2023/01/06 10:09:26;;;;;;;1.57;1.43;;;8.60;99.90;;;;;;4144214;28;20165;-63
2023/01/06 10:11:57;;;;;;;1.20;0.70;;;8.60;99.90;;;;;;4145631;28;20274;-63
2023/01/06 10:14:42;;;;;;;1.43;1.00;;;8.50;99.90;;;;;;4145410;28;20232;-63
2023/01/06 10:16:57;;;;;;;0.60;0.60;;;8.50;99.90;;;;;;4144704;28;20181;-63
2023/01/06 10:19:24;;;;;;;1.57;1.47;;;8.30;99.90;;;;;;4145369;28;20251;-63
2023/01/06 10:21:45;;;;;;;0.43;0.43;;;8.20;99.90;;;;;;4145321;28;20201;-63
2023/01/06 10:24:06;;;;;;;0.83;0.83;;;8.10;99.90;;;;;;4144187;28;20169;-64
2023/01/06 10:26:25;;;;;;;0.70;0.70;;;8.30;99.90;;;;;;4141221;28;20597;-63
2023/01/06 10:28:35;;;;;;;0.50;0.50;;;8.50;99.90;;;;;;4144222;28;20190;-63
2023/01/06 10:30:50;;;;;;;0.60;0.57;;;8.40;99.90;;;;;;4145593;28;20201;-63
2023/01/06 10:32:51;;;;;;;1.13;0.73;;;8.30;99.90;;;;;;4145316;28;20276;-64
2023/01/06 10:34:51;;;;;;;4.47;2.83;;;8.20;99.90;;;;;;4145073;28;20228;-64
2023/01/06 10:37:20;;;;;;;1.33;0.50;;;8.20;99.90;;;;;;4140732;28;20224;-65
2023/01/06 10:39:24;;;;;;;1.13;1.00;;;8.40;99.90;;;;;;4160193;28;20176;-64
2023/01/06 10:42:54;;;;;;;1.43;1.27;;;8.50;99.90;;;;;;4160097;28;20683;-64
2023/01/06 10:44:18;;;;;;;1.70;1.30;;;8.50;99.90;;;;;;4160075;28;20207;-64
2023/01/06 10:46:19;;;;;;;1.27;1.17;;;8.60;99.90;;;;;;4161377;28;20192;-63
2023/01/06 10:48:25;;;;;;;0.80;0.80;;;8.60;99.90;;;;;;4159862;28;20185;-65
2023/01/06 10:50:27;;;;;;;0.60;0.60;;;8.60;99.90;;;;;;4160842;28;20294;-64
2023/01/06 10:52:29;;;;;;;0.30;0.30;;;8.80;99.90;;;;;;4162410;28;20287;-63
2023/01/06 10:54:33;;;;;;;0.70;0.70;;;8.80;99.90;;;;;;4158795;28;20244;-64
2023/01/06 10:56:34;;;;;;;1.43;0.60;;;8.90;99.90;;;;;;4172030;28;20195;-63
2023/01/06 10:58:57;;;;;;;1.37;0.70;;;9.10;99.90;;;;;;4151955;28;20268;-64
2023/01/06 11:01:14;;;;;;;0.90;0.77;;;9.40;99.90;;;;;;4175572;28;20774;-63
2023/01/06 11:03:15;;;;;;;1.23;1.10;;;9.50;99.90;;;;;;4164787;28;20185;-63
2023/01/06 11:05:27;;;;;;;0.87;0.70;;;9.60;99.90;;;;;;4179608;28;20552;-62
2023/01/06 11:07:28;;;;;;;0.50;0.50;;;9.70;99.90;;;;;;4146692;28;20189;-63
2023/01/06 11:09:29;;;;;;;0.53;0.50;;;9.80;99.90;;;;;;4180331;28;20233;-63
2023/01/06 11:11:30;;;;;;;0.50;0.50;;;9.70;99.90;;;;;;4171715;28;20220;-63